createdAt,value
2023-10-16T00:03:59.522Z,2.13
2023-10-16T00:09:32.723Z,2.45
2023-10-16T00:14:38.027Z,2.08
2023-10-16T00:19:46.069Z,2.28
2023-10-16T00:24:50.244Z,2.03
2023-10-16T00:29:54.349Z,2.25
2023-10-16T00:34:58.263Z,1.70
2023-10-16T00:40:09.591Z,1.83
2023-10-16T00:45:13.538Z,2.13
2023-10-16T00:50:17.554Z,1.73
2023-10-16T00:55:22.124Z,1.90
2023-10-16T01:00:27.247Z,1.88
2023-10-16T01:05:31.339Z,1.92
2023-10-16T01:10:42.589Z,2.17
2023-10-16T01:15:48.614Z,2.20
2023-10-16T01:20:54.667Z,2.03
2023-10-16T01:26:00.823Z,1.77
2023-10-16T01:31:06.959Z,1.83
2023-10-16T01:36:12.013Z,1.92
2023-10-16T01:41:17.125Z,1.92
2023-10-16T01:46:22.398Z,2.05
2023-10-16T01:51:29.342Z,2.17
2023-10-16T01:56:33.400Z,1.80
2023-10-16T02:01:37.384Z,2.08
2023-10-16T02:06:41.265Z,1.92
2023-10-16T02:11:45.281Z,2.20
2023-10-16T02:16:49.693Z,2.22
2023-10-16T02:21:55.744Z,2.40
2023-10-16T02:26:59.655Z,1.95
2023-10-16T02:32:06.098Z,1.85
2023-10-16T02:37:16.427Z,1.65
2023-10-16T02:42:21.375Z,1.77
2023-10-16T02:47:28.652Z,1.90
2023-10-16T02:52:32.716Z,1.83
2023-10-16T02:57:37.198Z,1.88
2023-10-16T03:02:41.903Z,2.00
2023-10-16T03:07:46.964Z,1.98
2023-10-16T03:12:54.893Z,1.45
2023-10-16T03:17:59.270Z,1.60
2023-10-16T03:23:08.203Z,1.63
2023-10-16T03:28:13.318Z,2.58
2023-10-16T03:33:17.585Z,3.53
2023-10-16T03:38:31.108Z,2.00
2023-10-16T03:43:35.987Z,1.38
2023-10-16T03:48:40.895Z,1.35
2023-10-16T03:53:46.199Z,1.38
2023-10-16T03:58:51.012Z,1.50
2023-10-16T04:03:59.270Z,1.63
2023-10-16T04:09:06.353Z,1.58
2023-10-16T04:14:16.636Z,1.23
2023-10-16T04:19:20.463Z,1.40
2023-10-16T04:24:30.816Z,1.52
2023-10-16T04:29:51.561Z,1.38
2023-10-16T04:34:56.103Z,1.45
2023-10-16T04:40:06.238Z,1.55
2023-10-16T04:45:16.735Z,1.25
2023-10-16T04:51:09.846Z,1.42
2023-10-16T04:56:17.918Z,1.30
2023-10-16T05:01:35.655Z,1.02
2023-10-16T05:06:39.572Z,1.25
2023-10-16T05:12:01.918Z,1.30
2023-10-16T05:17:11.831Z,1.30
2023-10-16T05:22:34.414Z,1.20
2023-10-16T05:27:56.893Z,1.42
2023-10-16T05:33:19.605Z,1.20
2023-10-16T05:38:42.397Z,1.75
2023-10-16T05:44:04.513Z,1.73
2023-10-16T05:49:26.716Z,1.02
2023-10-16T05:54:49.285Z,1.15
2023-10-16T06:00:11.696Z,1.33
2023-10-16T06:05:34.698Z,1.10
2023-10-16T06:10:57.129Z,1.23
2023-10-16T06:16:01.025Z,1.27
2023-10-16T06:21:05.181Z,1.20
2023-10-16T06:26:10.487Z,1.35
2023-10-16T06:31:15.282Z,1.10
2023-10-16T06:36:20.056Z,1.10
2023-10-16T06:41:25.153Z,0.93
2023-10-16T06:46:29.126Z,1.17
2023-10-16T06:51:33.253Z,1.10
2023-10-16T06:56:39.657Z,1.35
2023-10-16T07:01:44.226Z,1.00
2023-10-16T07:06:50.980Z,1.00
2023-10-16T07:11:56.816Z,1.10
2023-10-16T07:17:01.178Z,1.08
2023-10-16T07:22:12.595Z,0.80
2023-10-16T07:27:16.642Z,0.90
2023-10-16T07:32:21.631Z,1.08
2023-10-16T07:37:26.537Z,1.00
2023-10-16T07:42:31.586Z,0.73
2023-10-16T07:47:35.484Z,0.90
2023-10-16T07:52:39.270Z,0.80
2023-10-16T07:57:45.291Z,0.93
2023-10-16T08:02:49.169Z,0.80
2023-10-16T08:07:55.232Z,1.08
2023-10-16T08:12:59.161Z,1.10
2023-10-16T08:18:03.138Z,1.10
2023-10-16T08:23:08.110Z,1.17
2023-10-16T08:28:26.659Z,1.20
2023-10-16T08:33:33.631Z,1.00
2023-10-16T08:38:38.252Z,1.27
2023-10-16T08:43:56.595Z,1.20
2023-10-16T08:49:04.966Z,1.00
2023-10-16T08:54:29.487Z,1.27
2023-10-16T08:59:34.032Z,1.05
2023-10-16T09:04:38.808Z,1.05
2023-10-16T09:09:43.013Z,1.08
2023-10-16T09:14:46.886Z,1.30
2023-10-16T09:20:04.663Z,1.20
2023-10-16T09:25:12.447Z,1.20
2023-10-16T09:30:19.866Z,1.00
2023-10-16T09:35:34.574Z,1.30
2023-10-16T09:40:42.177Z,1.27
2023-10-16T09:45:49.496Z,1.30
2023-10-16T09:50:54.539Z,1.20
2023-10-16T09:56:04.092Z,1.45
2023-10-16T10:01:11.741Z,1.33
2023-10-16T10:06:23.059Z,1.25
2023-10-16T10:11:40.531Z,1.48
2023-10-16T10:16:49.104Z,1.52
2023-10-16T10:21:56.390Z,1.23
2023-10-16T10:27:04.236Z,1.42
2023-10-16T10:32:11.532Z,1.65
2023-10-16T10:37:43.757Z,1.35
2023-10-16T10:42:49.613Z,1.30
2023-10-16T10:47:57.066Z,1.50
2023-10-16T10:53:05.052Z,1.48
2023-10-16T10:58:15.165Z,1.30
2023-10-16T11:03:32.334Z,1.20
2023-10-16T11:08:37.173Z,1.40
2023-10-16T11:13:48.933Z,1.10
2023-10-16T11:19:01.188Z,1.35
2023-10-16T11:24:07.638Z,1.20
2023-10-16T11:29:14.132Z,1.80
2023-10-16T11:34:23.443Z,1.25
2023-10-16T11:39:28.886Z,1.52
2023-10-16T11:44:39.913Z,1.20
2023-10-16T11:49:56.279Z,1.33
2023-10-16T11:55:00.350Z,1.40
2023-10-16T12:00:17.949Z,1.70
2023-10-16T12:05:21.837Z,1.95
2023-10-16T12:10:30.602Z,1.60
2023-10-16T12:15:35.676Z,1.70
2023-10-16T12:20:39.865Z,1.60
2023-10-16T12:25:43.715Z,1.88
2023-10-16T12:30:48.021Z,1.70
2023-10-16T12:35:51.846Z,2.10
2023-10-16T12:40:57.634Z,1.85
2023-10-16T12:46:01.522Z,1.70
2023-10-16T12:51:12.115Z,1.90
2023-10-16T12:56:19.034Z,2.20
2023-10-16T13:01:23.514Z,2.70
2023-10-16T13:06:31.061Z,2.70
2023-10-16T13:11:36.051Z,3.28
2023-10-16T13:16:41.354Z,3.97
2023-10-16T13:21:48.130Z,2.95
2023-10-16T13:26:54.287Z,2.35
2023-10-16T13:32:02.560Z,2.40
2023-10-16T13:37:12.557Z,1.95
2023-10-16T13:42:18.536Z,2.10
2023-10-16T13:47:22.446Z,2.13
2023-10-16T13:52:26.478Z,1.88
2023-10-16T13:57:31.191Z,1.85
2023-10-16T14:02:38.655Z,1.80
2023-10-16T14:07:45.818Z,1.80
2023-10-16T14:13:00.869Z,2.05
2023-10-16T14:18:05.346Z,1.80
2023-10-16T14:23:12.919Z,1.73
2023-10-16T14:28:45.856Z,1.60
2023-10-16T14:33:53.366Z,1.95
2023-10-16T14:38:58.895Z,1.60
2023-10-16T14:44:17.004Z,1.80
2023-10-16T14:49:28.620Z,1.50
2023-10-16T14:54:33.801Z,1.30
2023-10-16T14:59:39.507Z,1.45
2023-10-16T15:04:45.960Z,1.38
2023-10-16T15:09:51.043Z,1.42
2023-10-16T15:14:55.121Z,1.30
2023-10-16T15:19:59.719Z,1.52
2023-10-16T15:25:04.846Z,1.30
2023-10-16T15:30:12.093Z,1.60
2023-10-16T15:35:17.548Z,1.63
2023-10-16T15:40:22.029Z,1.40
2023-10-16T15:45:28.049Z,1.67
2023-10-16T15:50:33.079Z,1.77
2023-10-16T15:55:38.626Z,1.52
2023-10-16T16:00:46.800Z,1.33
2023-10-16T16:05:53.512Z,1.75
2023-10-16T16:10:57.669Z,1.70
2023-10-16T16:16:07.480Z,1.52
2023-10-16T16:26:19.216Z,1.80
2023-10-16T16:31:23.761Z,1.65
2023-10-16T16:36:29.841Z,1.40
2023-10-16T16:41:36.081Z,2.05
2023-10-16T16:46:40.314Z,1.63
2023-10-16T16:51:45.107Z,1.98
2023-10-16T16:56:49.430Z,1.50
2023-10-16T17:01:56.675Z,1.92
2023-10-16T17:07:06.136Z,2.00
2023-10-16T17:12:10.887Z,2.03
2023-10-16T17:17:14.926Z,2.35
2023-10-16T17:22:19.101Z,2.10
2023-10-16T17:27:23.126Z,2.88
2023-10-16T17:32:27.196Z,2.40
2023-10-16T17:37:31.621Z,2.55
2023-10-16T17:42:36.149Z,3.05
2023-10-16T17:47:40.336Z,3.10
2023-10-16T17:52:48.946Z,2.95
2023-10-16T17:57:52.773Z,2.75
2023-10-16T18:02:58.330Z,3.70
2023-10-16T18:08:11.151Z,3.67
2023-10-16T18:13:17.471Z,3.40
2023-10-16T18:18:22.400Z,4.10
2023-10-16T18:23:26.868Z,3.55
2023-10-16T18:28:30.723Z,4.32
2023-10-16T18:33:34.854Z,4.60
2023-10-16T18:38:39.727Z,4.78
2023-10-16T18:43:43.748Z,4.38
2023-10-16T18:48:47.760Z,5.93
2023-10-16T18:53:52.330Z,6.18
2023-10-16T18:58:57.375Z,5.68
2023-10-16T19:04:02.722Z,5.85
2023-10-16T19:09:06.832Z,5.60
2023-10-16T19:14:10.640Z,5.60
2023-10-16T19:19:14.644Z,5.53
2023-10-16T19:24:21.706Z,5.00
2023-10-16T19:29:25.846Z,5.55
2023-10-16T19:34:31.081Z,5.53
2023-10-16T19:39:35.841Z,5.63
2023-10-16T19:44:39.914Z,5.72
2023-10-16T19:49:44.148Z,6.00
2023-10-16T19:54:49.378Z,6.18
2023-10-16T19:59:53.198Z,5.47
2023-10-16T20:04:57.295Z,5.68
2023-10-16T20:10:01.175Z,5.07
2023-10-16T20:15:07.429Z,5.72
2023-10-16T20:20:26.625Z,5.55
2023-10-16T20:25:38.502Z,5.88
2023-10-16T20:30:44.331Z,5.97
2023-10-16T20:35:49.220Z,6.20
2023-10-16T20:40:53.174Z,6.03
2023-10-16T20:45:57.220Z,6.13
2023-10-16T20:51:01.097Z,5.95
2023-10-16T20:56:08.291Z,5.75
2023-10-16T21:01:17.179Z,5.78
2023-10-16T21:06:21.072Z,5.43
2023-10-16T21:11:25.140Z,5.78
2023-10-16T21:16:29.155Z,4.50
2023-10-16T21:21:34.253Z,5.05
2023-10-16T21:26:38.195Z,4.20
2023-10-16T21:31:42.355Z,4.40
2023-10-16T21:36:46.512Z,5.05
2023-10-16T21:41:51.764Z,4.63
2023-10-16T21:46:55.621Z,5.25
2023-10-16T21:51:59.468Z,4.40
2023-10-16T21:57:04.053Z,4.68
2023-10-16T22:02:09.504Z,4.38
2023-10-16T22:07:14.753Z,4.45
2023-10-16T22:12:19.468Z,4.63
2023-10-16T22:17:24.729Z,4.20
2023-10-16T22:22:28.905Z,3.55
2023-10-16T22:27:33.921Z,3.35
2023-10-16T22:32:38.083Z,3.80
2023-10-16T22:37:42.628Z,3.95
2023-10-16T22:42:46.656Z,4.15
2023-10-16T22:47:53.375Z,4.13
2023-10-16T22:52:57.410Z,3.75
2023-10-16T22:58:01.267Z,3.63
2023-10-16T23:03:06.402Z,4.10
2023-10-16T23:08:10.618Z,4.43
2023-10-16T23:13:14.586Z,4.13
2023-10-16T23:18:20.986Z,4.38
2023-10-16T23:23:24.850Z,4.45
2023-10-16T23:28:32.086Z,4.40
2023-10-16T23:33:41.875Z,4.25
2023-10-16T23:38:45.749Z,4.13
2023-10-16T23:43:53.646Z,4.50
2023-10-16T23:49:10.088Z,4.45
2023-10-16T23:54:32.690Z,4.30
2023-10-16T23:59:36.458Z,4.35
